sensor_id;sensor_type;location;lat;lon;timestamp;P1;durP1;ratioP1;P2;durP2;ratioP2
18407;SDS011;9330;52.210;21.174;2023-07-13T00:00:40;11.15;;;8.68;;
18407;SDS011;9330;52.210;21.174;2023-07-13T00:03:07;10.27;;;9.02;;
18407;SDS011;9330;52.210;21.174;2023-07-13T00:05:34;10.75;;;8.75;;
18407;SDS011;9330;52.210;21.174;2023-07-13T00:08:01;9.20;;;8.30;;
18407;SDS011;9330;52.210;21.174;2023-07-13T00:10:29;10.18;;;8.95;;
18407;SDS011;9330;52.210;21.174;2023-07-13T00:12:56;9.50;;;8.45;;
18407;SDS011;9330;52.210;21.174;2023-07-13T00:15:24;10.10;;;9.20;;
18407;SDS011;9330;52.210;21.174;2023-07-13T00:17:53;9.90;;;9.00;;
18407;SDS011;9330;52.210;21.174;2023-07-13T00:20:21;9.65;;;8.73;;
18407;SDS011;9330;52.210;21.174;2023-07-13T00:22:50;9.77;;;8.77;;
18407;SDS011;9330;52.210;21.174;2023-07-13T00:25:18;10.30;;;9.32;;
18407;SDS011;9330;52.210;21.174;2023-07-13T00:27:48;9.13;;;8.32;;
18407;SDS011;9330;52.210;21.174;2023-07-13T00:30:15;10.10;;;9.10;;
18407;SDS011;9330;52.210;21.174;2023-07-13T00:32:42;10.13;;;9.13;;
18407;SDS011;9330;52.210;21.174;2023-07-13T00:35:09;10.35;;;9.35;;
18407;SDS011;9330;52.210;21.174;2023-07-13T00:37:36;9.98;;;9.05;;
18407;SDS011;9330;52.210;21.174;2023-07-13T00:40:04;10.13;;;9.13;;
18407;SDS011;9330;52.210;21.174;2023-07-13T00:42:32;9.75;;;8.75;;
18407;SDS011;9330;52.210;21.174;2023-07-13T00:46:07;10.85;;;9.77;;
18407;SDS011;9330;52.210;21.174;2023-07-13T00:48:15;9.77;;;8.88;;
18407;SDS011;9330;52.210;21.174;2023-07-13T00:50:46;10.15;;;9.25;;
18407;SDS011;9330;52.210;21.174;2023-07-13T00:53:16;10.57;;;9.48;;
18407;SDS011;9330;52.210;21.174;2023-07-13T00:55:44;9.40;;;8.60;;
18407;SDS011;9330;52.210;21.174;2023-07-13T00:58:12;10.23;;;9.23;;
18407;SDS011;9330;52.210;21.174;2023-07-13T01:00:39;10.07;;;9.23;;
18407;SDS011;9330;52.210;21.174;2023-07-13T01:03:06;11.68;;;8.82;;
18407;SDS011;9330;52.210;21.174;2023-07-13T01:05:35;9.85;;;8.85;;
18407;SDS011;9330;52.210;21.174;2023-07-13T01:08:04;8.32;;;7.53;;
18407;SDS011;9330;52.210;21.174;2023-07-13T01:10:31;8.88;;;8.00;;
18407;SDS011;9330;52.210;21.174;2023-07-13T01:13:03;10.60;;;8.70;;
18407;SDS011;9330;52.210;21.174;2023-07-13T01:15:34;9.05;;;8.13;;
18407;SDS011;9330;52.210;21.174;2023-07-13T01:18:03;9.25;;;8.35;;
18407;SDS011;9330;52.210;21.174;2023-07-13T01:20:31;10.05;;;9.05;;
18407;SDS011;9330;52.210;21.174;2023-07-13T01:23:03;11.23;;;9.10;;
18407;SDS011;9330;52.210;21.174;2023-07-13T01:25:31;9.60;;;8.70;;
18407;SDS011;9330;52.210;21.174;2023-07-13T01:27:58;8.65;;;7.88;;
18407;SDS011;9330;52.210;21.174;2023-07-13T01:30:25;9.50;;;8.50;;
18407;SDS011;9330;52.210;21.174;2023-07-13T01:32:52;10.07;;;9.07;;
18407;SDS011;9330;52.210;21.174;2023-07-13T01:35:19;10.10;;;9.15;;
18407;SDS011;9330;52.210;21.174;2023-07-13T01:37:46;9.80;;;8.95;;
18407;SDS011;9330;52.210;21.174;2023-07-13T01:40:14;9.55;;;8.63;;
18407;SDS011;9330;52.210;21.174;2023-07-13T01:42:41;9.45;;;8.55;;
18407;SDS011;9330;52.210;21.174;2023-07-13T01:45:08;9.73;;;8.85;;
18407;SDS011;9330;52.210;21.174;2023-07-13T01:47:35;10.85;;;9.18;;
18407;SDS011;9330;52.210;21.174;2023-07-13T01:50:02;9.25;;;8.35;;
18407;SDS011;9330;52.210;21.174;2023-07-13T01:52:30;10.18;;;8.70;;
18407;SDS011;9330;52.210;21.174;2023-07-13T01:54:56;9.50;;;8.60;;
18407;SDS011;9330;52.210;21.174;2023-07-13T01:57:24;9.27;;;8.48;;
18407;SDS011;9330;52.210;21.174;2023-07-13T01:59:51;9.25;;;8.40;;
18407;SDS011;9330;52.210;21.174;2023-07-13T02:02:18;9.23;;;8.32;;
18407;SDS011;9330;52.210;21.174;2023-07-13T02:04:45;9.18;;;8.27;;
18407;SDS011;9330;52.210;21.174;2023-07-13T02:07:12;10.35;;;9.25;;
18407;SDS011;9330;52.210;21.174;2023-07-13T02:09:40;9.35;;;8.45;;
18407;SDS011;9330;52.210;21.174;2023-07-13T02:12:07;9.23;;;8.32;;
18407;SDS011;9330;52.210;21.174;2023-07-13T02:14:36;10.20;;;9.30;;
18407;SDS011;9330;52.210;21.174;2023-07-13T02:17:03;9.60;;;8.68;;
18407;SDS011;9330;52.210;21.174;2023-07-13T02:19:30;9.95;;;8.95;;
18407;SDS011;9330;52.210;21.174;2023-07-13T02:21:57;9.60;;;8.73;;
18407;SDS011;9330;52.210;21.174;2023-07-13T02:24:24;9.15;;;8.38;;
18407;SDS011;9330;52.210;21.174;2023-07-13T02:26:52;10.88;;;9.50;;
18407;SDS011;9330;52.210;21.174;2023-07-13T02:29:19;12.25;;;9.05;;
18407;SDS011;9330;52.210;21.174;2023-07-13T02:31:47;9.63;;;8.73;;
18407;SDS011;9330;52.210;21.174;2023-07-13T02:34:14;9.40;;;8.50;;
18407;SDS011;9330;52.210;21.174;2023-07-13T02:36:40;10.15;;;9.15;;
18407;SDS011;9330;52.210;21.174;2023-07-13T02:39:07;9.63;;;8.68;;
18407;SDS011;9330;52.210;21.174;2023-07-13T02:41:37;9.85;;;8.95;;
18407;SDS011;9330;52.210;21.174;2023-07-13T02:44:04;9.68;;;8.77;;
18407;SDS011;9330;52.210;21.174;2023-07-13T02:46:33;10.00;;;8.82;;
18407;SDS011;9330;52.210;21.174;2023-07-13T02:49:02;9.07;;;8.18;;
18407;SDS011;9330;52.210;21.174;2023-07-13T02:51:30;8.77;;;8.00;;
18407;SDS011;9330;52.210;21.174;2023-07-13T02:53:58;9.15;;;8.25;;
18407;SDS011;9330;52.210;21.174;2023-07-13T02:56:26;10.05;;;9.05;;
18407;SDS011;9330;52.210;21.174;2023-07-13T02:58:56;8.98;;;8.05;;
18407;SDS011;9330;52.210;21.174;2023-07-13T03:01:22;9.10;;;8.23;;
18407;SDS011;9330;52.210;21.174;2023-07-13T03:03:50;10.32;;;8.85;;
18407;SDS011;9330;52.210;21.174;2023-07-13T03:06:19;9.15;;;8.35;;
18407;SDS011;9330;52.210;21.174;2023-07-13T03:08:48;9.48;;;8.45;;
18407;SDS011;9330;52.210;21.174;2023-07-13T03:11:16;8.70;;;7.80;;
18407;SDS011;9330;52.210;21.174;2023-07-13T03:13:45;9.10;;;7.75;;
18407;SDS011;9330;52.210;21.174;2023-07-13T03:16:12;9.13;;;8.10;;
18407;SDS011;9330;52.210;21.174;2023-07-13T03:18:40;9.18;;;8.35;;
18407;SDS011;9330;52.210;21.174;2023-07-13T03:21:08;8.25;;;7.45;;
18407;SDS011;9330;52.210;21.174;2023-07-13T03:23:36;8.90;;;8.10;;
18407;SDS011;9330;52.210;21.174;2023-07-13T03:26:04;8.95;;;7.97;;
18407;SDS011;9330;52.210;21.174;2023-07-13T03:28:32;8.77;;;7.97;;
18407;SDS011;9330;52.210;21.174;2023-07-13T03:31:00;10.75;;;8.93;;
18407;SDS011;9330;52.210;21.174;2023-07-13T03:33:28;8.55;;;7.85;;
18407;SDS011;9330;52.210;21.174;2023-07-13T03:35:55;8.70;;;7.93;;
18407;SDS011;9330;52.210;21.174;2023-07-13T03:38:22;8.30;;;7.60;;
18407;SDS011;9330;52.210;21.174;2023-07-13T03:40:50;9.45;;;8.55;;
18407;SDS011;9330;52.210;21.174;2023-07-13T03:43:17;9.23;;;7.90;;
18407;SDS011;9330;52.210;21.174;2023-07-13T03:45:45;9.15;;;8.30;;
18407;SDS011;9330;52.210;21.174;2023-07-13T03:48:12;8.45;;;7.65;;
18407;SDS011;9330;52.210;21.174;2023-07-13T03:50:39;8.65;;;7.85;;
18407;SDS011;9330;52.210;21.174;2023-07-13T03:53:06;9.15;;;8.35;;
18407;SDS011;9330;52.210;21.174;2023-07-13T03:55:33;8.50;;;7.70;;
18407;SDS011;9330;52.210;21.174;2023-07-13T04:00:57;8.18;;;7.47;;
18407;SDS011;9330;52.210;21.174;2023-07-13T04:03:25;8.60;;;7.80;;
18407;SDS011;9330;52.210;21.174;2023-07-13T04:05:53;9.48;;;8.55;;
18407;SDS011;9330;52.210;21.174;2023-07-13T04:08:25;9.23;;;8.43;;
18407;SDS011;9330;52.210;21.174;2023-07-13T04:10:53;10.10;;;8.65;;
18407;SDS011;9330;52.210;21.174;2023-07-13T04:13:22;8.75;;;7.95;;
18407;SDS011;9330;52.210;21.174;2023-07-13T04:15:49;9.70;;;8.43;;
18407;SDS011;9330;52.210;21.174;2023-07-13T04:18:17;7.75;;;7.05;;
18407;SDS011;9330;52.210;21.174;2023-07-13T04:20:44;9.75;;;8.85;;
18407;SDS011;9330;52.210;21.174;2023-07-13T04:23:11;9.02;;;8.23;;
18407;SDS011;9330;52.210;21.174;2023-07-13T04:25:38;8.70;;;7.93;;
18407;SDS011;9330;52.210;21.174;2023-07-13T04:28:06;9.30;;;8.43;;
18407;SDS011;9330;52.210;21.174;2023-07-13T04:30:34;9.50;;;8.60;;
18407;SDS011;9330;52.210;21.174;2023-07-13T04:33:01;9.77;;;8.82;;
18407;SDS011;9330;52.210;21.174;2023-07-13T04:35:29;10.48;;;9.55;;
18407;SDS011;9330;52.210;21.174;2023-07-13T04:37:56;11.60;;;10.50;;
18407;SDS011;9330;52.210;21.174;2023-07-13T04:40:23;12.23;;;10.68;;
18407;SDS011;9330;52.210;21.174;2023-07-13T04:42:50;12.98;;;10.98;;
18407;SDS011;9330;52.210;21.174;2023-07-13T04:45:17;11.15;;;9.95;;
18407;SDS011;9330;52.210;21.174;2023-07-13T04:47:46;11.38;;;10.18;;
18407;SDS011;9330;52.210;21.174;2023-07-13T04:50:13;11.98;;;9.93;;
18407;SDS011;9330;52.210;21.174;2023-07-13T04:52:45;10.52;;;9.52;;
18407;SDS011;9330;52.210;21.174;2023-07-13T04:55:14;10.98;;;9.45;;
18407;SDS011;9330;52.210;21.174;2023-07-13T04:57:41;11.38;;;10.05;;
18407;SDS011;9330;52.210;21.174;2023-07-13T05:00:09;11.68;;;10.48;;
18407;SDS011;9330;52.210;21.174;2023-07-13T05:02:37;10.68;;;9.68;;
18407;SDS011;9330;52.210;21.174;2023-07-13T05:05:07;11.20;;;10.07;;
18407;SDS011;9330;52.210;21.174;2023-07-13T05:07:34;10.60;;;9.50;;
18407;SDS011;9330;52.210;21.174;2023-07-13T05:10:01;9.50;;;8.60;;
18407;SDS011;9330;52.210;21.174;2023-07-13T05:12:29;10.90;;;9.80;;
18407;SDS011;9330;52.210;21.174;2023-07-13T05:14:56;11.30;;;10.00;;
18407;SDS011;9330;52.210;21.174;2023-07-13T05:17:23;10.98;;;9.98;;
18407;SDS011;9330;52.210;21.174;2023-07-13T05:19:50;10.77;;;9.68;;
18407;SDS011;9330;52.210;21.174;2023-07-13T05:22:18;12.43;;;11.23;;
18407;SDS011;9330;52.210;21.174;2023-07-13T05:24:45;9.77;;;8.77;;
18407;SDS011;9330;52.210;21.174;2023-07-13T05:27:12;11.10;;;10.00;;
18407;SDS011;9330;52.210;21.174;2023-07-13T05:29:38;11.30;;;10.13;;
18407;SDS011;9330;52.210;21.174;2023-07-13T05:32:05;11.02;;;9.93;;
18407;SDS011;9330;52.210;21.174;2023-07-13T05:34:32;11.77;;;10.68;;
18407;SDS011;9330;52.210;21.174;2023-07-13T05:36:59;10.75;;;9.57;;
18407;SDS011;9330;52.210;21.174;2023-07-13T05:39:27;12.98;;;11.68;;
18407;SDS011;9330;52.210;21.174;2023-07-13T05:41:54;12.25;;;11.10;;
18407;SDS011;9330;52.210;21.174;2023-07-13T05:44:21;11.93;;;10.73;;
18407;SDS011;9330;52.210;21.174;2023-07-13T05:46:48;12.50;;;11.10;;
18407;SDS011;9330;52.210;21.174;2023-07-13T05:49:15;12.77;;;11.57;;
18407;SDS011;9330;52.210;21.174;2023-07-13T05:51:42;15.20;;;13.10;;
18407;SDS011;9330;52.210;21.174;2023-07-13T05:54:09;12.43;;;11.13;;
18407;SDS011;9330;52.210;21.174;2023-07-13T05:56:37;12.52;;;11.30;;
18407;SDS011;9330;52.210;21.174;2023-07-13T05:59:04;13.38;;;11.38;;
18407;SDS011;9330;52.210;21.174;2023-07-13T06:01:31;11.13;;;9.82;;
18407;SDS011;9330;52.210;21.174;2023-07-13T06:03:58;13.48;;;12.13;;
18407;SDS011;9330;52.210;21.174;2023-07-13T06:06:25;15.07;;;11.90;;
18407;SDS011;9330;52.210;21.174;2023-07-13T06:08:52;11.07;;;9.98;;
18407;SDS011;9330;52.210;21.174;2023-07-13T06:11:20;12.38;;;11.02;;
18407;SDS011;9330;52.210;21.174;2023-07-13T06:13:49;12.38;;;11.15;;
18407;SDS011;9330;52.210;21.174;2023-07-13T06:16:17;12.30;;;11.10;;
18407;SDS011;9330;52.210;21.174;2023-07-13T06:18:44;12.23;;;11.02;;
18407;SDS011;9330;52.210;21.174;2023-07-13T06:21:11;14.63;;;11.77;;
18407;SDS011;9330;52.210;21.174;2023-07-13T06:23:39;10.15;;;8.73;;
18407;SDS011;9330;52.210;21.174;2023-07-13T06:26:07;9.48;;;8.57;;
18407;SDS011;9330;52.210;21.174;2023-07-13T06:28:34;11.02;;;9.93;;
18407;SDS011;9330;52.210;21.174;2023-07-13T06:31:04;11.48;;;9.80;;
18407;SDS011;9330;52.210;21.174;2023-07-13T06:33:31;10.70;;;9.60;;
18407;SDS011;9330;52.210;21.174;2023-07-13T06:35:58;10.23;;;9.25;;
18407;SDS011;9330;52.210;21.174;2023-07-13T06:38:25;8.85;;;7.97;;
18407;SDS011;9330;52.210;21.174;2023-07-13T06:40:52;8.05;;;7.25;;
18407;SDS011;9330;52.210;21.174;2023-07-13T06:43:19;7.03;;;6.32;;
18407;SDS011;9330;52.210;21.174;2023-07-13T06:45:46;6.70;;;6.10;;
18407;SDS011;9330;52.210;21.174;2023-07-13T06:48:18;6.93;;;6.20;;
18407;SDS011;9330;52.210;21.174;2023-07-13T06:50:45;6.55;;;5.85;;
18407;SDS011;9330;52.210;21.174;2023-07-13T06:53:12;6.30;;;5.70;;
18407;SDS011;9330;52.210;21.174;2023-07-13T06:55:40;6.20;;;5.55;;
18407;SDS011;9330;52.210;21.174;2023-07-13T06:58:06;6.43;;;5.57;;
18407;SDS011;9330;52.210;21.174;2023-07-13T07:00:33;5.13;;;4.30;;
18407;SDS011;9330;52.210;21.174;2023-07-13T07:03:00;4.68;;;4.28;;
18407;SDS011;9330;52.210;21.174;2023-07-13T07:05:29;4.78;;;4.28;;
18407;SDS011;9330;52.210;21.174;2023-07-13T07:07:56;5.45;;;4.38;;
18407;SDS011;9330;52.210;21.174;2023-07-13T07:10:22;4.57;;;4.18;;
18407;SDS011;9330;52.210;21.174;2023-07-13T07:12:49;6.82;;;4.85;;
18407;SDS011;9330;52.210;21.174;2023-07-13T07:15:16;5.10;;;4.60;;
18407;SDS011;9330;52.210;21.174;2023-07-13T07:17:43;4.70;;;3.97;;
18407;SDS011;9330;52.210;21.174;2023-07-13T07:20:11;4.90;;;4.30;;
18407;SDS011;9330;52.210;21.174;2023-07-13T07:22:40;5.05;;;4.43;;
18407;SDS011;9330;52.210;21.174;2023-07-13T07:25:07;4.15;;;3.75;;
18407;SDS011;9330;52.210;21.174;2023-07-13T07:27:34;4.70;;;3.97;;
18407;SDS011;9330;52.210;21.174;2023-07-13T07:30:01;4.43;;;3.80;;
18407;SDS011;9330;52.210;21.174;2023-07-13T07:32:28;5.47;;;4.25;;
18407;SDS011;9330;52.210;21.174;2023-07-13T07:34:56;4.63;;;3.58;;
18407;SDS011;9330;52.210;21.174;2023-07-13T07:37:24;4.28;;;3.80;;
18407;SDS011;9330;52.210;21.174;2023-07-13T07:39:52;3.92;;;3.60;;
18407;SDS011;9330;52.210;21.174;2023-07-13T07:42:19;3.42;;;3.13;;
18407;SDS011;9330;52.210;21.174;2023-07-13T07:44:46;3.60;;;3.30;;
18407;SDS011;9330;52.210;21.174;2023-07-13T07:47:13;3.75;;;3.30;;
18407;SDS011;9330;52.210;21.174;2023-07-13T07:49:40;3.60;;;3.30;;
18407;SDS011;9330;52.210;21.174;2023-07-13T07:52:07;4.57;;;3.55;;
18407;SDS011;9330;52.210;21.174;2023-07-13T07:54:34;3.15;;;2.85;;
18407;SDS011;9330;52.210;21.174;2023-07-13T07:57:02;4.03;;;3.35;;
18407;SDS011;9330;52.210;21.174;2023-07-13T07:59:29;4.03;;;3.50;;
18407;SDS011;9330;52.210;21.174;2023-07-13T08:01:56;4.18;;;3.78;;
18407;SDS011;9330;52.210;21.174;2023-07-13T08:04:23;3.50;;;3.20;;
18407;SDS011;9330;52.210;21.174;2023-07-13T08:06:50;4.47;;;3.50;;
18407;SDS011;9330;52.210;21.174;2023-07-13T08:09:17;4.68;;;3.58;;
18407;SDS011;9330;52.210;21.174;2023-07-13T08:11:43;3.75;;;3.45;;
18407;SDS011;9330;52.210;21.174;2023-07-13T08:14:11;5.15;;;3.53;;
18407;SDS011;9330;52.210;21.174;2023-07-13T08:16:39;4.18;;;3.47;;
18407;SDS011;9330;52.210;21.174;2023-07-13T08:19:06;4.40;;;4.00;;
18407;SDS011;9330;52.210;21.174;2023-07-13T08:21:33;5.10;;;4.70;;
18407;SDS011;9330;52.210;21.174;2023-07-13T08:24:00;5.50;;;5.00;;
18407;SDS011;9330;52.210;21.174;2023-07-13T08:26:27;8.20;;;6.00;;
18407;SDS011;9330;52.210;21.174;2023-07-13T08:28:54;6.95;;;6.25;;
18407;SDS011;9330;52.210;21.174;2023-07-13T08:31:22;6.95;;;6.30;;
18407;SDS011;9330;52.210;21.174;2023-07-13T08:33:48;8.15;;;7.40;;
18407;SDS011;9330;52.210;21.174;2023-07-13T08:36:15;6.88;;;6.18;;
18407;SDS011;9330;52.210;21.174;2023-07-13T08:38:42;7.13;;;5.82;;
18407;SDS011;9330;52.210;21.174;2023-07-13T08:41:10;6.15;;;5.60;;
18407;SDS011;9330;52.210;21.174;2023-07-13T08:43:40;5.72;;;5.22;;
18407;SDS011;9330;52.210;21.174;2023-07-13T08:46:11;7.03;;;5.60;;
18407;SDS011;9330;52.210;21.174;2023-07-13T08:48:44;6.80;;;6.13;;
18407;SDS011;9330;52.210;21.174;2023-07-13T08:51:26;7.00;;;6.38;;
18407;SDS011;9330;52.210;21.174;2023-07-13T08:54:00;7.95;;;6.32;;
18407;SDS011;9330;52.210;21.174;2023-07-13T08:56:29;7.18;;;6.22;;
18407;SDS011;9330;52.210;21.174;2023-07-13T08:58:58;7.22;;;6.50;;
18407;SDS011;9330;52.210;21.174;2023-07-13T09:01:30;6.60;;;6.00;;
18407;SDS011;9330;52.210;21.174;2023-07-13T09:04:09;6.35;;;5.40;;
18407;SDS011;9330;52.210;21.174;2023-07-13T09:06:42;5.72;;;4.88;;
18407;SDS011;9330;52.210;21.174;2023-07-13T09:09:17;7.35;;;4.97;;
18407;SDS011;9330;52.210;21.174;2023-07-13T09:11:53;5.25;;;4.75;;
18407;SDS011;9330;52.210;21.174;2023-07-13T09:14:30;4.95;;;4.50;;
18407;SDS011;9330;52.210;21.174;2023-07-13T09:17:04;6.75;;;5.15;;
18407;SDS011;9330;52.210;21.174;2023-07-13T09:19:38;5.47;;;4.97;;
18407;SDS011;9330;52.210;21.174;2023-07-13T09:22:09;5.03;;;4.63;;
18407;SDS011;9330;52.210;21.174;2023-07-13T09:24:41;5.82;;;4.95;;
18407;SDS011;9330;52.210;21.174;2023-07-13T09:27:18;5.13;;;4.72;;
18407;SDS011;9330;52.210;21.174;2023-07-13T09:29:50;5.90;;;5.20;;
18407;SDS011;9330;52.210;21.174;2023-07-13T09:32:24;5.60;;;5.10;;
18407;SDS011;9330;52.210;21.174;2023-07-13T09:34:55;5.60;;;5.10;;
18407;SDS011;9330;52.210;21.174;2023-07-13T09:37:22;8.80;;;5.30;;
18407;SDS011;9330;52.210;21.174;2023-07-13T09:39:56;9.57;;;5.00;;
18407;SDS011;9330;52.210;21.174;2023-07-13T09:42:25;6.55;;;5.93;;
18407;SDS011;9330;52.210;21.174;2023-07-13T09:44:54;5.90;;;5.40;;
18407;SDS011;9330;52.210;21.174;2023-07-13T09:47:22;6.05;;;5.45;;
18407;SDS011;9330;52.210;21.174;2023-07-13T09:49:55;6.32;;;4.60;;
18407;SDS011;9330;52.210;21.174;2023-07-13T09:52:23;7.60;;;4.05;;
18407;SDS011;9330;52.210;21.174;2023-07-13T09:54:52;4.13;;;3.10;;
18407;SDS011;9330;52.210;21.174;2023-07-13T09:57:24;5.25;;;2.85;;
18407;SDS011;9330;52.210;21.174;2023-07-13T09:59:53;3.08;;;2.78;;
18407;SDS011;9330;52.210;21.174;2023-07-13T10:02:28;2.72;;;2.40;;
18407;SDS011;9330;52.210;21.174;2023-07-13T10:04:59;2.58;;;2.38;;
18407;SDS011;9330;52.210;21.174;2023-07-13T10:07:29;3.95;;;2.67;;
18407;SDS011;9330;52.210;21.174;2023-07-13T10:09:57;2.67;;;2.28;;
18407;SDS011;9330;52.210;21.174;2023-07-13T10:12:26;2.95;;;2.70;;
18407;SDS011;9330;52.210;21.174;2023-07-13T10:14:54;2.90;;;2.70;;
18407;SDS011;9330;52.210;21.174;2023-07-13T10:17:25;2.75;;;2.53;;
18407;SDS011;9330;52.210;21.174;2023-07-13T10:19:55;2.40;;;2.20;;
18407;SDS011;9330;52.210;21.174;2023-07-13T10:22:31;2.80;;;2.58;;
18407;SDS011;9330;52.210;21.174;2023-07-13T10:25:11;2.33;;;2.08;;
18407;SDS011;9330;52.210;21.174;2023-07-13T10:27:43;4.75;;;2.47;;
18407;SDS011;9330;52.210;21.174;2023-07-13T10:30:12;2.78;;;2.47;;
18407;SDS011;9330;52.210;21.174;2023-07-13T10:32:44;4.45;;;2.30;;
18407;SDS011;9330;52.210;21.174;2023-07-13T10:35:15;2.97;;;2.22;;
18407;SDS011;9330;52.210;21.174;2023-07-13T10:37:45;2.55;;;2.35;;
18407;SDS011;9330;52.210;21.174;2023-07-13T10:40:18;3.58;;;2.17;;
18407;SDS011;9330;52.210;21.174;2023-07-13T10:42:50;3.15;;;1.90;;
18407;SDS011;9330;52.210;21.174;2023-07-13T10:45:20;3.00;;;2.55;;
18407;SDS011;9330;52.210;21.174;2023-07-13T10:47:49;3.78;;;2.30;;
18407;SDS011;9330;52.210;21.174;2023-07-13T10:50:20;5.55;;;2.50;;
18407;SDS011;9330;52.210;21.174;2023-07-13T10:52:50;3.33;;;2.28;;
18407;SDS011;9330;52.210;21.174;2023-07-13T10:55:33;2.47;;;2.08;;
18407;SDS011;9330;52.210;21.174;2023-07-13T10:58:02;3.55;;;2.08;;
18407;SDS011;9330;52.210;21.174;2023-07-13T11:00:43;2.63;;;2.20;;
18407;SDS011;9330;52.210;21.174;2023-07-13T11:03:13;3.45;;;2.50;;
18407;SDS011;9330;52.210;21.174;2023-07-13T11:05:45;2.75;;;2.25;;
18407;SDS011;9330;52.210;21.174;2023-07-13T11:08:18;3.65;;;2.55;;
18407;SDS011;9330;52.210;21.174;2023-07-13T11:10:52;3.55;;;2.30;;
18407;SDS011;9330;52.210;21.174;2023-07-13T11:16:34;4.35;;;2.53;;
18407;SDS011;9330;52.210;21.174;2023-07-13T11:22:21;2.83;;;2.45;;
18407;SDS011;9330;52.210;21.174;2023-07-13T11:25:00;2.97;;;2.22;;
18407;SDS011;9330;52.210;21.174;2023-07-13T11:27:34;5.05;;;3.20;;
18407;SDS011;9330;52.210;21.174;2023-07-13T11:30:07;5.00;;;2.90;;
18407;SDS011;9330;52.210;21.174;2023-07-13T11:32:44;6.22;;;3.30;;
18407;SDS011;9330;52.210;21.174;2023-07-13T11:35:12;6.97;;;3.20;;
18407;SDS011;9330;52.210;21.174;2023-07-13T11:37:44;5.15;;;3.40;;
18407;SDS011;9330;52.210;21.174;2023-07-13T11:40:12;5.35;;;3.80;;
18407;SDS011;9330;52.210;21.174;2023-07-13T11:42:40;8.27;;;3.90;;
18407;SDS011;9330;52.210;21.174;2023-07-13T11:45:17;5.18;;;3.70;;
18407;SDS011;9330;52.210;21.174;2023-07-13T11:47:48;4.80;;;3.40;;
18407;SDS011;9330;52.210;21.174;2023-07-13T11:50:19;4.95;;;3.38;;
18407;SDS011;9330;52.210;21.174;2023-07-13T11:52:48;4.53;;;2.97;;
18407;SDS011;9330;52.210;21.174;2023-07-13T11:55:17;4.63;;;3.35;;
18407;SDS011;9330;52.210;21.174;2023-07-13T11:57:45;8.50;;;3.60;;
18407;SDS011;9330;52.210;21.174;2023-07-13T12:00:17;4.18;;;3.10;;
18407;SDS011;9330;52.210;21.174;2023-07-13T12:02:47;5.70;;;3.50;;
18407;SDS011;9330;52.210;21.174;2023-07-13T12:05:18;3.60;;;3.30;;
18407;SDS011;9330;52.210;21.174;2023-07-13T12:07:46;4.65;;;3.50;;
18407;SDS011;9330;52.210;21.174;2023-07-13T12:10:19;5.22;;;3.22;;
18407;SDS011;9330;52.210;21.174;2023-07-13T12:12:48;5.20;;;3.33;;
18407;SDS011;9330;52.210;21.174;2023-07-13T12:15:18;4.25;;;3.28;;
18407;SDS011;9330;52.210;21.174;2023-07-13T12:17:47;5.53;;;3.42;;
18407;SDS011;9330;52.210;21.174;2023-07-13T12:20:17;3.58;;;3.20;;
18407;SDS011;9330;52.210;21.174;2023-07-13T12:22:47;4.85;;;3.70;;
18407;SDS011;9330;52.210;21.174;2023-07-13T12:25:15;5.57;;;3.60;;
18407;SDS011;9330;52.210;21.174;2023-07-13T12:27:47;5.47;;;3.95;;
18407;SDS011;9330;52.210;21.174;2023-07-13T12:30:25;4.18;;;3.78;;
18407;SDS011;9330;52.210;21.174;2023-07-13T12:32:56;4.90;;;3.90;;
18407;SDS011;9330;52.210;21.174;2023-07-13T12:35:25;4.88;;;3.90;;
18407;SDS011;9330;52.210;21.174;2023-07-13T12:37:58;7.53;;;4.25;;
18407;SDS011;9330;52.210;21.174;2023-07-13T12:40:27;4.90;;;4.18;;
18407;SDS011;9330;52.210;21.174;2023-07-13T12:43:00;5.03;;;4.40;;
18407;SDS011;9330;52.210;21.174;2023-07-13T12:45:29;6.05;;;4.03;;
18407;SDS011;9330;52.210;21.174;2023-07-13T12:47:57;5.35;;;4.10;;
18407;SDS011;9330;52.210;21.174;2023-07-13T12:50:36;5.03;;;4.50;;
18407;SDS011;9330;52.210;21.174;2023-07-13T12:53:06;4.03;;;3.55;;
18407;SDS011;9330;52.210;21.174;2023-07-13T12:55:42;5.03;;;4.20;;
18407;SDS011;9330;52.210;21.174;2023-07-13T12:58:17;4.35;;;3.95;;
18407;SDS011;9330;52.210;21.174;2023-07-13T13:00:48;5.10;;;4.60;;
18407;SDS011;9330;52.210;21.174;2023-07-13T13:03:21;5.57;;;4.85;;
18407;SDS011;9330;52.210;21.174;2023-07-13T13:06:01;5.40;;;4.68;;
18407;SDS011;9330;52.210;21.174;2023-07-13T13:08:30;6.90;;;4.57;;
18407;SDS011;9330;52.210;21.174;2023-07-13T13:11:00;4.82;;;4.20;;
18407;SDS011;9330;52.210;21.174;2023-07-13T13:13:28;5.18;;;4.20;;
18407;SDS011;9330;52.210;21.174;2023-07-13T13:15:55;5.28;;;4.28;;
18407;SDS011;9330;52.210;21.174;2023-07-13T13:18:23;5.90;;;4.55;;
18407;SDS011;9330;52.210;21.174;2023-07-13T13:20:50;5.10;;;4.70;;
18407;SDS011;9330;52.210;21.174;2023-07-13T13:23:18;5.53;;;4.47;;
18407;SDS011;9330;52.210;21.174;2023-07-13T13:25:49;5.70;;;4.80;;
18407;SDS011;9330;52.210;21.174;2023-07-13T13:28:17;4.68;;;3.83;;
18407;SDS011;9330;52.210;21.174;2023-07-13T13:30:47;4.50;;;4.10;;
18407;SDS011;9330;52.210;21.174;2023-07-13T13:33:16;5.45;;;4.57;;
18407;SDS011;9330;52.210;21.174;2023-07-13T13:35:44;4.82;;;4.43;;
18407;SDS011;9330;52.210;21.174;2023-07-13T13:38:12;5.43;;;4.57;;
18407;SDS011;9330;52.210;21.174;2023-07-13T13:40:40;5.55;;;4.75;;
18407;SDS011;9330;52.210;21.174;2023-07-13T13:43:13;5.75;;;5.13;;
18407;SDS011;9330;52.210;21.174;2023-07-13T13:45:41;5.80;;;5.20;;
18407;SDS011;9330;52.210;21.174;2023-07-13T13:48:12;6.05;;;5.45;;
18407;SDS011;9330;52.210;21.174;2023-07-13T13:50:41;7.43;;;6.00;;
18407;SDS011;9330;52.210;21.174;2023-07-13T13:53:09;6.70;;;5.35;;
18407;SDS011;9330;52.210;21.174;2023-07-13T13:55:38;5.13;;;4.63;;
18407;SDS011;9330;52.210;21.174;2023-07-13T13:58:06;5.75;;;5.03;;
18407;SDS011;9330;52.210;21.174;2023-07-13T14:00:34;5.60;;;5.03;;
18407;SDS011;9330;52.210;21.174;2023-07-13T14:03:01;5.93;;;4.40;;
18407;SDS011;9330;52.210;21.174;2023-07-13T14:05:29;5.63;;;4.93;;
18407;SDS011;9330;52.210;21.174;2023-07-13T14:07:57;5.78;;;4.75;;
18407;SDS011;9330;52.210;21.174;2023-07-13T14:10:24;6.15;;;5.28;;
18407;SDS011;9330;52.210;21.174;2023-07-13T14:12:53;4.97;;;4.55;;
18407;SDS011;9330;52.210;21.174;2023-07-13T14:15:23;5.22;;;4.72;;
18407;SDS011;9330;52.210;21.174;2023-07-13T14:17:51;5.25;;;4.75;;
18407;SDS011;9330;52.210;21.174;2023-07-13T14:20:19;6.32;;;5.57;;
18407;SDS011;9330;52.210;21.174;2023-07-13T14:22:50;8.27;;;6.38;;
18407;SDS011;9330;52.210;21.174;2023-07-13T14:25:18;6.53;;;5.07;;
18407;SDS011;9330;52.210;21.174;2023-07-13T14:27:46;6.20;;;5.60;;
18407;SDS011;9330;52.210;21.174;2023-07-13T14:30:18;7.72;;;5.72;;
18407;SDS011;9330;52.210;21.174;2023-07-13T14:32:46;5.82;;;5.22;;
18407;SDS011;9330;52.210;21.174;2023-07-13T14:35:15;6.85;;;6.20;;
18407;SDS011;9330;52.210;21.174;2023-07-13T14:37:43;8.00;;;7.20;;
18407;SDS011;9330;52.210;21.174;2023-07-13T14:40:14;7.47;;;6.25;;
18407;SDS011;9330;52.210;21.174;2023-07-13T14:42:42;8.60;;;7.75;;
18407;SDS011;9330;52.210;21.174;2023-07-13T14:45:13;7.28;;;6.57;;
18407;SDS011;9330;52.210;21.174;2023-07-13T14:47:41;7.38;;;6.78;;
18407;SDS011;9330;52.210;21.174;2023-07-13T14:50:13;7.38;;;6.18;;
18407;SDS011;9330;52.210;21.174;2023-07-13T14:52:41;8.50;;;7.68;;
18407;SDS011;9330;52.210;21.174;2023-07-13T14:55:10;8.45;;;7.60;;
18407;SDS011;9330;52.210;21.174;2023-07-13T14:57:39;8.40;;;7.55;;
18407;SDS011;9330;52.210;21.174;2023-07-13T15:00:12;7.70;;;6.97;;
18407;SDS011;9330;52.210;21.174;2023-07-13T15:02:41;8.75;;;7.95;;